Estación meteorológica de Calldetenes (Osona, Plana de Vic)

Consulta los datos en tiempo real de la estación meteorológica de Calldetenes





Hora UTC 07:30
Temperatura 19.7 ºC
Suelo 15 cm 18.2 ºC
Humedad 83.3 %
Presión 1022.4 hPa
Pluja 0.0 mm
Velocidad viento 1.7 km/h
Dirección viento N
Radiación solar 286.4 W/m²

Webcam

Datos diarios 2026-09-04



Hora UTC (invierno +1h; verano +2h)
Temperatura (ºC) Humedad (%) Presión (hPa) Velocidad viento (km/h) Precipitación (mm) Radiación solar (W/m²)
Hora UTC Aire Suelo 15 cm Humedad Presión Vel. Dir. Vel. Max Dir. Intent. máx 5 min. Rad. Sol.
00:05 19.5 19.4 87.4 1023.7 3.6 SE 3.6 SE 0.0 0.1
00:10 19.4 19.4 87.2 1023.7 3.9 ESE 5.3 SE 0.0 0.1
00:15 19.3 19.4 87.6 1023.7 3.6 ESE 5.3 ESE 0.0 0.1
00:20 19.3 19.3 87.6 1023.7 2.8 SE 5.3 ESE 0.0 0.1
00:25 19.1 19.2 87.3 1023.6 1.8 ESE 3.5 ESE 0.0 0.1
00:30 19.0 19.1 89.1 1023.6 3.8 ESE 5.6 ESE 0.0 0.1
00:35 19.1 19.0 89.6 1023.6 2.3 ESE 4.6 ESE 0.0 0.1
00:40 19.0 19.1 88.8 1023.6 2.1 ESE 4.6 ESE 0.0 0.1
00:45 18.9 19.0 88.5 1023.5 3.1 ESE 4.9 ESE 0.0 0.1
00:50 18.9 18.9 88.6 1023.5 2.8 ESE 4.6 ESE 0.0 0.1
00:55 18.8 18.8 89.2 1023.4 3.0 SE 4.9 ESE 0.0 0.1
01:00 18.8 18.7 89.9 1023.4 0.7 SSE 2.5 SE 0.0 0.1
01:05 18.7 18.7 90.0 1023.3 0.0 NNE 0.0 S 0.0 0.1
01:10 18.7 18.6 90.1 1023.3 0.0 NNE 0.0 SSE 0.0 0.1
01:15 18.5 18.5 89.9 1023.2 0.0 SE 2.1 SE 0.0 0.1
01:20 18.5 18.5 90.8 1023.2 1.6 SE 3.2 SE 0.0 0.1
01:25 18.5 18.5 90.5 1023.2 0.6 SSW 2.5 SSW 0.0 0.1
01:30 18.5 18.4 91.6 1023.2 1.2 SSW 2.8 S 0.0 0.1
01:35 18.6 18.3 91.8 1023.2 0.8 SW 2.8 SW 0.0 0.1
01:40 18.7 18.4 91.6 1023.2 2.3 S 3.9 SSW 0.0 0.1
01:45 18.7 18.4 90.8 1023.2 2.1 SE 3.5 ESE 0.0 0.1
01:50 18.6 18.4 90.5 1023.2 2.6 ESE 3.9 ESE 0.0 0.1
01:55 18.4 18.4 90.0 1023.1 2.6 ESE 4.6 ESE 0.0 0.1
02:00 18.4 18.3 90.9 1023.1 2.7 ESE 4.6 ESE 0.0 0.1
02:05 18.2 18.2 89.3 1023.1 1.1 SE 2.8 SE 0.0 0.1
02:10 18.1 18.0 91.0 1023.1 0.6 SE 2.1 SE 0.0 0.1
02:15 18.1 17.9 91.7 1023.0 1.8 SE 3.5 ESE 0.0 0.1
02:20 18.0 17.9 91.2 1023.0 0.8 SE 3.2 ESE 0.0 0.1
02:25 17.8 17.7 92.0 1023.0 4.5 ESE 6.7 ESE 0.0 0.1
02:30 18.0 17.7 93.2 1023.0 4.1 ESE 6.4 SE 0.0 0.1
02:35 18.0 17.8 92.7 1023.0 2.3 ESE 4.9 ESE 0.0 0.1
02:40 18.0 17.8 92.8 1023.0 3.9 ESE 5.6 ESE 0.0 0.1
02:45 18.1 17.8 93.2 1022.9 1.7 SE 3.9 ESE 0.0 0.1
02:50 18.0 17.8 92.2 1022.9 0.0 SSE 1.1 SSE 0.0 0.1
02:55 17.7 17.8 92.4 1022.9 0.0 SSE 1.1 SSE 0.0 0.1
03:00 17.7 17.6 92.6 1022.9 0.0 NNE 0.0 SSE 0.0 0.1
03:05 17.6 17.5 93.3 1022.9 0.4 ESE 3.9 ESE 0.0 0.1
03:10 17.6 17.5 93.2 1022.9 1.7 ESE 3.9 ESE 0.0 0.1
03:15 17.5 17.5 92.7 1022.9 0.3 SE 1.8 S 0.0 0.1
03:20 17.5 17.4 93.2 1022.9 1.1 SE 2.1 SE 0.0 0.1
03:25 17.5 17.3 93.9 1022.8 1.6 SE 3.9 ESE 0.0 0.1
03:30 17.6 17.3 94.4 1022.8 1.5 SSE 3.2 SSE 0.0 0.1
03:35 17.5 17.3 94.2 1022.8 1.0 SSE 2.1 S 0.0 0.1
03:40 17.5 17.3 94.2 1022.8 0.8 SE 2.8 SE 0.0 0.1
03:45 17.4 17.3 93.7 1022.7 2.0 SSE 3.5 SE 0.0 0.1
03:50 17.3 17.2 93.6 1022.7 3.4 ESE 5.6 ESE 0.0 0.1
03:55 17.1 17.0 93.6 1022.6 4.0 SE 5.3 ESE 0.0 0.1
04:00 16.9 16.9 93.2 1022.6 0.7 SSE 3.2 SE 0.0 0.1
04:05 16.9 16.7 94.3 1022.6 0.8 SE 2.1 SSE 0.0 0.1
04:10 16.9 16.7 94.5 1022.6 0.3 SSE 2.1 SSE 0.0 0.1
04:15 16.7 16.6 94.0 1022.5 0.4 ESE 2.1 E 0.0 0.1
04:20 16.6 16.6 94.1 1022.5 1.2 SE 2.5 ESE 0.0 0.1
04:25 16.5 16.5 93.8 1022.5 0.2 ESE 2.1 ESE 0.0 0.1
04:30 16.5 16.4 94.7 1022.5 2.8 ESE 5.6 ESE 0.0 0.1
04:35 16.6 16.4 95.3 1022.5 4.6 ESE 6.4 ESE 0.0 0.1
04:40 16.7 16.5 95.4 1022.5 3.8 ESE 5.3 ESE 0.0 0.1
04:45 16.8 16.5 95.5 1022.5 4.1 ESE 6.0 ESE 0.0 0.1
04:50 16.8 16.6 95.5 1022.5 5.4 ESE 6.7 ESE 0.0 0.1
04:55 16.4 16.5 94.2 1022.4 1.0 SE 4.6 SE 0.0 0.1
05:00 16.4 16.4 95.4 1022.4 0.5 SE 2.1 ESE 0.0 0.2
05:05 16.3 16.3 95.1 1022.3 0.5 NW 2.1 WSW 0.0 0.4
05:10 16.4 16.2 95.5 1022.3 0.4 W 1.8 W 0.0 0.9
05:15 16.5 16.3 95.9 1022.4 0.9 SSW 2.1 SSW 0.0 1.7
05:20 16.7 16.4 96.7 1022.4 2.7 SSW 4.6 SW 0.0 3.0
05:25 16.8 16.5 95.9 1022.3 1.5 SSW 3.2 S 0.0 4.9
05:30 16.5 16.4 95.2 1022.3 0.9 SSW 2.8 S 0.0 6.6
05:35 16.4 16.2 95.6 1022.3 0.5 SSW 2.5 S 0.0 9.0
05:40 16.7 16.3 96.2 1022.3 2.4 S 3.5 SSW 0.0 11.7
05:45 16.6 16.3 95.9 1022.3 2.5 S 3.9 S 0.0 14.5
05:50 16.7 16.3 96.1 1022.3 2.4 S 3.5 S 0.0 17.2
05:55 16.6 16.4 95.5 1022.3 1.5 SSE 3.9 SSE 0.0 19.6
06:00 16.5 16.4 95.5 1022.3 1.9 ESE 3.2 ESE 0.0 21.8
06:05 16.6 16.4 95.7 1022.4 2.7 ESE 4.6 E 0.0 24.5
06:10 16.9 16.6 96.7 1022.4 3.8 ESE 5.6 E 0.0 27.4
06:15 17.2 16.8 96.8 1022.5 2.2 ESE 4.6 ESE 0.0 30.2
06:20 17.2 16.9 96.6 1022.5 1.6 ESE 2.8 E 0.0 33.4
06:25 17.2 16.8 96.5 1022.5 2.1 E 4.2 E 0.0 91.0
06:30 17.4 16.9 96.7 1022.5 1.7 E 3.5 E 0.0 119.7
06:35 17.6 17.0 96.9 1022.5 0.6 ENE 2.5 E 0.0 134.3
06:40 17.8 17.2 96.8 1022.5 1.5 ENE 2.1 ENE 0.0 145.4
06:45 18.0 17.3 96.7 1022.4 1.4 NE 2.5 NE 0.0 155.6
06:50 18.0 17.4 95.3 1022.4 1.6 NNE 3.9 NNE 0.0 169.0
06:55 18.1 17.5 92.9 1022.4 2.3 NNE 4.2 NNE 0.0 183.3
07:00 18.5 17.6 90.1 1022.4 3.6 NNE 6.0 N 0.0 197.7
07:05 18.9 17.7 87.6 1022.4 2.8 NNW 4.6 NW 0.0 212.4
07:10 19.2 17.8 86.3 1022.4 2.7 N 5.6 NNE 0.0 227.0
07:15 19.4 18.0 84.9 1022.4 3.2 NNW 5.3 N 0.0 241.9
07:20 19.5 18.1 84.3 1022.4 3.8 NW 5.6 NW 0.0 256.3
07:25 19.6 18.1 83.3 1022.4 1.3 WNW 4.9 WNW 0.0 271.7
07:30 19.7 18.2 83.3 1022.4 1.7 N 5.3 NNE 0.0 286.4
Máxima 19.7 19.4 96.9 1023.7 5.4 ESE 6.7 ESE 0.0 286.4
Mínima 16.3 16.2 83.3 1022.3
Total 0.0